createdAt,value
2019-05-29T00:01:48.157Z,8.98
2019-05-29T00:04:22.277Z,8.97
2019-05-29T00:06:56.331Z,8.97
2019-05-29T00:09:29.686Z,8.97
2019-05-29T00:12:03.929Z,8.98
2019-05-29T00:14:38.205Z,8.97
2019-05-29T00:17:12.527Z,8.99
2019-05-29T00:19:46.530Z,8.98
2019-05-29T00:22:20.419Z,8.98
2019-05-29T00:24:54.639Z,8.97
2019-05-29T00:27:28.544Z,8.97
2019-05-29T00:30:02.369Z,8.95
2019-05-29T00:32:36.779Z,8.93
2019-05-29T00:35:12.174Z,8.91
2019-05-29T00:37:46.171Z,8.90
2019-05-29T00:40:20.216Z,8.89
2019-05-29T00:42:53.287Z,8.86
2019-05-29T00:45:27.069Z,8.85
2019-05-29T00:48:01.071Z,8.82
2019-05-29T00:50:35.044Z,8.81
2019-05-29T00:53:10.090Z,8.80
2019-05-29T00:55:43.997Z,8.75
2019-05-29T00:58:19.725Z,8.73
2019-05-29T01:00:53.628Z,8.70
2019-05-29T01:03:27.464Z,8.68
2019-05-29T01:06:01.387Z,8.66
2019-05-29T01:08:35.172Z,8.63
2019-05-29T01:11:09.111Z,8.60
2019-05-29T01:13:43.059Z,8.58
2019-05-29T01:16:16.220Z,8.55
2019-05-29T01:18:51.163Z,8.52
2019-05-29T01:21:24.957Z,8.48
2019-05-29T01:23:58.823Z,8.45
2019-05-29T01:26:32.727Z,8.40
2019-05-29T01:29:06.535Z,8.37
2019-05-29T01:31:40.453Z,8.34
2019-05-29T01:34:14.291Z,8.33
2019-05-29T01:36:48.371Z,8.29
2019-05-29T01:39:23.525Z,8.27
2019-05-29T01:41:57.539Z,8.23
2019-05-29T01:44:31.591Z,8.19
2019-05-29T01:47:04.719Z,8.16
2019-05-29T01:49:38.450Z,8.14
2019-05-29T01:52:12.369Z,8.12
2019-05-29T01:54:46.281Z,8.10
2019-05-29T01:57:20.160Z,8.07
2019-05-29T01:59:53.973Z,8.04
2019-05-29T02:02:28.260Z,8.04
2019-05-29T02:05:02.315Z,8.02
2019-05-29T02:07:36.278Z,8.01
2019-05-29T02:10:09.430Z,7.99
2019-05-29T02:12:43.332Z,7.98
2019-05-29T02:15:26.814Z,7.97
2019-05-29T02:17:52.995Z,7.98
2019-05-29T02:20:27.207Z,7.94
2019-05-29T02:23:01.151Z,7.95
2019-05-29T02:25:35.001Z,7.94
2019-05-29T02:28:08.877Z,7.93
2019-05-29T02:30:42.789Z,7.92
2019-05-29T02:33:17.588Z,7.92
2019-05-29T02:35:51.653Z,7.93
2019-05-29T02:38:25.450Z,7.94
2019-05-29T02:41:00.437Z,7.94
2019-05-29T02:43:34.269Z,7.92
2019-05-29T02:46:08.238Z,7.93
2019-05-29T02:48:42.067Z,7.94
2019-05-29T02:51:15.864Z,7.94
2019-05-29T02:53:49.684Z,7.97
2019-05-29T02:56:24.898Z,7.97
2019-05-29T02:58:58.855Z,7.98
2019-05-29T03:01:33.083Z,8.00
2019-05-29T03:04:07.138Z,8.02
2019-05-29T03:06:42.648Z,8.03
2019-05-29T03:09:17.895Z,8.04
2019-05-29T03:11:52.061Z,8.06
2019-05-29T03:14:27.257Z,8.08
2019-05-29T03:17:01.283Z,8.08
2019-05-29T03:19:35.198Z,8.10
2019-05-29T03:22:08.425Z,8.12
2019-05-29T03:24:42.261Z,8.13
2019-05-29T03:27:16.178Z,8.13
2019-05-29T03:29:50.043Z,8.17
2019-05-29T03:32:23.946Z,8.19
2019-05-29T03:34:57.848Z,8.21
2019-05-29T03:37:32.470Z,8.22
2019-05-29T03:40:07.613Z,8.25
2019-05-29T03:42:41.716Z,8.30
2019-05-29T03:45:14.732Z,8.30
2019-05-29T03:47:49.452Z,8.33
2019-05-29T03:50:22.567Z,8.34
2019-05-29T03:52:56.540Z,8.38
2019-05-29T03:55:31.386Z,8.42
2019-05-29T03:58:04.443Z,8.46
2019-05-29T04:00:45.587Z,8.49
2019-05-29T04:03:13.948Z,8.53
2019-05-29T04:05:47.051Z,8.59
2019-05-29T04:08:20.865Z,8.62
2019-05-29T04:10:54.696Z,8.69
2019-05-29T04:13:29.624Z,8.74
2019-05-29T04:16:04.189Z,8.86
2019-05-29T04:18:38.090Z,8.99
2019-05-29T04:21:14.329Z,9.08
2019-05-29T04:23:49.855Z,9.14
2019-05-29T04:26:25.335Z,9.17
2019-05-29T04:28:59.379Z,9.21
2019-05-29T04:31:32.921Z,9.42
2019-05-29T04:34:07.901Z,9.86
2019-05-29T04:36:41.658Z,10.19
2019-05-29T04:39:15.509Z,10.64
2019-05-29T04:41:49.457Z,11.11
2019-05-29T04:44:23.333Z,11.60
2019-05-29T04:47:10.122Z,11.99
2019-05-29T04:49:33.828Z,12.44
2019-05-29T04:52:08.355Z,12.82
2019-05-29T04:54:42.267Z,13.22
2019-05-29T04:57:16.214Z,13.54
2019-05-29T04:59:50.122Z,13.85
2019-05-29T05:02:24.165Z,14.19
2019-05-29T05:04:58.260Z,14.38
2019-05-29T05:07:33.206Z,14.46
2019-05-29T05:10:07.900Z,14.45
2019-05-29T05:12:42.167Z,14.40
2019-05-29T05:15:16.362Z,14.28
2019-05-29T05:17:50.217Z,14.23
2019-05-29T05:20:24.112Z,14.26
2019-05-29T05:22:57.201Z,14.22
2019-05-29T05:25:32.148Z,14.22
2019-05-29T05:28:07.023Z,14.22
2019-05-29T05:30:41.004Z,14.24
2019-05-29T05:33:14.113Z,14.27
2019-05-29T05:35:48.159Z,14.44
2019-05-29T05:38:22.063Z,14.66
2019-05-29T05:40:55.319Z,14.86
2019-05-29T05:43:29.118Z,15.01
2019-05-29T05:46:03.127Z,15.18
2019-05-29T05:48:37.145Z,15.53
2019-05-29T05:51:11.160Z,15.77
2019-05-29T05:53:44.226Z,15.97
2019-05-29T05:56:18.027Z,16.20
2019-05-29T05:58:52.018Z,16.34
2019-05-29T06:01:25.896Z,16.52
2019-05-29T06:03:58.993Z,16.58
2019-05-29T06:06:33.915Z,16.74
2019-05-29T06:09:08.747Z,16.76
2019-05-29T06:11:42.803Z,16.84
2019-05-29T06:14:16.630Z,17.14
2019-05-29T06:16:49.718Z,17.36
2019-05-29T06:19:23.960Z,17.38
2019-05-29T06:21:57.793Z,17.54
2019-05-29T06:24:30.885Z,17.57
2019-05-29T06:27:04.745Z,17.82
2019-05-29T06:29:39.353Z,17.95
2019-05-29T06:32:13.461Z,18.11
2019-05-29T06:34:46.838Z,18.34
2019-05-29T06:37:20.680Z,18.39
2019-05-29T06:39:53.776Z,18.38
2019-05-29T06:42:27.608Z,18.24
2019-05-29T06:45:01.096Z,18.33
2019-05-29T06:47:36.478Z,18.36
2019-05-29T06:50:10.712Z,18.37
2019-05-29T06:52:44.722Z,18.34
2019-05-29T06:55:18.728Z,18.38
2019-05-29T06:57:52.582Z,18.31
2019-05-29T07:00:35.032Z,18.27
2019-05-29T07:03:01.131Z,18.48
2019-05-29T07:05:35.557Z,18.39
2019-05-29T07:08:19.036Z,18.49
2019-05-29T07:10:45.075Z,18.73
2019-05-29T07:13:18.130Z,18.91
2019-05-29T07:15:51.972Z,19.01
2019-05-29T07:18:25.765Z,18.94
2019-05-29T07:20:58.868Z,19.08
2019-05-29T07:23:32.804Z,19.34
2019-05-29T07:26:06.847Z,19.55
2019-05-29T07:28:58.937Z,19.66
2019-05-29T07:31:16.262Z,19.60
2019-05-29T07:33:49.566Z,19.60
2019-05-29T07:36:23.447Z,19.75
2019-05-29T07:39:03.367Z,19.96
2019-05-29T07:41:32.855Z,20.31
2019-05-29T07:44:06.851Z,20.44
2019-05-29T07:46:42.156Z,20.56
2019-05-29T07:49:16.265Z,20.82
2019-05-29T07:51:50.122Z,21.20
2019-05-29T07:54:24.043Z,21.13
2019-05-29T07:56:57.915Z,21.12
2019-05-29T07:59:31.901Z,21.35
2019-05-29T08:02:05.837Z,21.63
2019-05-29T08:04:40.895Z,21.71
2019-05-29T08:07:14.945Z,21.97
2019-05-29T08:09:49.807Z,22.27
2019-05-29T08:12:24.008Z,22.46
2019-05-29T08:14:57.939Z,22.49
2019-05-29T08:17:32.018Z,22.55
2019-05-29T08:20:09.424Z,22.74
2019-05-29T08:22:44.433Z,23.04
2019-05-29T08:25:19.123Z,23.33
2019-05-29T08:27:53.064Z,23.83
2019-05-29T08:30:27.102Z,23.64
2019-05-29T08:33:01.099Z,23.99
2019-05-29T08:35:35.121Z,24.03
2019-05-29T08:38:08.943Z,24.11
2019-05-29T08:40:43.027Z,24.74
2019-05-29T08:43:16.987Z,25.42
2019-05-29T08:45:52.679Z,25.77
2019-05-29T08:48:26.659Z,26.10
2019-05-29T08:51:00.664Z,25.70
2019-05-29T08:53:34.686Z,24.86
2019-05-29T08:56:08.587Z,25.45
2019-05-29T08:58:42.916Z,26.03
2019-05-29T09:01:16.912Z,26.41
2019-05-29T09:03:51.342Z,26.47
2019-05-29T09:06:25.489Z,26.13
2019-05-29T09:08:59.310Z,26.31
2019-05-29T09:11:33.156Z,26.66
2019-05-29T09:14:06.974Z,27.46
2019-05-29T09:16:40.831Z,27.62
2019-05-29T09:19:14.678Z,27.97
2019-05-29T09:21:48.486Z,26.76
2019-05-29T09:24:23.071Z,26.18
2019-05-29T09:26:57.043Z,25.38
2019-05-29T09:29:30.813Z,25.20
2019-05-29T09:32:04.929Z,25.93
2019-05-29T09:34:38.762Z,26.07
2019-05-29T09:37:12.714Z,26.55
2019-05-29T09:39:46.632Z,26.86
2019-05-29T09:42:21.935Z,26.50
2019-05-29T09:44:56.240Z,26.87
2019-05-29T09:47:30.103Z,27.37
2019-05-29T09:50:06.055Z,27.56
2019-05-29T09:52:40.001Z,27.01
2019-05-29T09:55:14.156Z,26.87
2019-05-29T09:57:48.325Z,26.93
2019-05-29T10:00:22.592Z,27.06
2019-05-29T10:02:57.226Z,27.36
2019-05-29T10:05:31.269Z,27.63
2019-05-29T10:08:05.317Z,27.70
2019-05-29T10:10:39.130Z,27.85
2019-05-29T10:13:13.125Z,28.37
2019-05-29T10:15:47.056Z,28.29
2019-05-29T10:18:31.878Z,26.99
2019-05-29T10:20:58.100Z,26.74
2019-05-29T10:23:32.910Z,26.89
2019-05-29T10:26:06.996Z,27.14
2019-05-29T10:28:56.065Z,26.52
2019-05-29T10:31:16.637Z,25.28
2019-05-29T10:33:50.496Z,24.55
2019-05-29T10:36:24.464Z,24.38
2019-05-29T10:38:58.411Z,23.56
2019-05-29T10:41:31.513Z,22.63
2019-05-29T10:44:05.721Z,22.01
2019-05-29T10:46:39.507Z,21.78
2019-05-29T10:49:13.538Z,21.24
2019-05-29T10:52:00.377Z,20.53
2019-05-29T10:54:21.441Z,20.04
2019-05-29T10:56:55.458Z,19.65
2019-05-29T10:59:28.691Z,19.19
2019-05-29T11:02:03.010Z,18.87
2019-05-29T11:04:37.140Z,18.58
2019-05-29T11:07:11.182Z,18.43
2019-05-29T11:09:45.153Z,18.29
2019-05-29T11:12:19.025Z,18.05
2019-05-29T11:14:53.119Z,17.80
2019-05-29T11:17:26.528Z,17.68
2019-05-29T11:20:02.256Z,17.58
2019-05-29T11:22:36.345Z,17.41
2019-05-29T11:25:23.396Z,17.34
2019-05-29T11:27:46.532Z,17.19
2019-05-29T11:30:20.898Z,17.00
2019-05-29T11:32:56.592Z,16.79
2019-05-29T11:35:30.542Z,16.61
2019-05-29T11:38:04.987Z,16.50
2019-05-29T11:40:39.384Z,16.36
2019-05-29T11:43:13.878Z,16.23
2019-05-29T11:45:47.964Z,16.19
2019-05-29T11:48:21.670Z,16.09
2019-05-29T11:50:56.179Z,15.95
2019-05-29T11:53:30.690Z,15.91
2019-05-29T11:56:05.170Z,15.85
2019-05-29T11:58:39.341Z,15.81
2019-05-29T12:01:13.691Z,15.80
2019-05-29T12:04:15.709Z,15.75
2019-05-29T12:06:23.242Z,15.75
2019-05-29T12:08:57.926Z,15.70
2019-05-29T12:11:32.083Z,15.69
2019-05-29T12:14:06.707Z,15.57
2019-05-29T12:16:40.563Z,15.52
2019-05-29T12:19:14.549Z,15.45
2019-05-29T12:21:49.157Z,15.41
2019-05-29T12:24:23.020Z,15.41
2019-05-29T12:26:57.006Z,15.40
2019-05-29T12:29:30.962Z,15.40
2019-05-29T12:32:09.807Z,15.34
2019-05-29T12:34:52.775Z,15.34
2019-05-29T12:37:16.250Z,15.34
2019-05-29T12:39:50.296Z,15.40
2019-05-29T12:42:23.373Z,15.38
2019-05-29T12:44:57.639Z,15.32
2019-05-29T12:47:31.839Z,15.26
2019-05-29T12:50:06.411Z,15.29
2019-05-29T12:52:40.697Z,15.30
2019-05-29T12:55:16.132Z,15.32
2019-05-29T12:57:50.131Z,15.29
2019-05-29T13:00:24.961Z,15.20
2019-05-29T13:03:00.611Z,15.14
2019-05-29T13:05:34.725Z,15.10
2019-05-29T13:08:08.791Z,15.05
2019-05-29T13:10:41.925Z,15.00
2019-05-29T13:13:17.149Z,15.05
2019-05-29T13:15:51.565Z,15.02
2019-05-29T13:18:25.680Z,14.96
2019-05-29T13:21:15.229Z,14.92
2019-05-29T13:23:49.061Z,14.94
2019-05-29T13:26:23.239Z,14.90
2019-05-29T13:28:57.532Z,14.87
2019-05-29T13:31:31.764Z,14.80
2019-05-29T13:34:11.008Z,14.74
2019-05-29T13:36:45.059Z,14.68
2019-05-29T13:39:18.319Z,14.62
2019-05-29T13:41:52.260Z,14.58
2019-05-29T13:44:26.320Z,14.55
2019-05-29T13:46:59.930Z,14.46
2019-05-29T13:49:33.996Z,14.38
2019-05-29T13:52:12.351Z,14.31
2019-05-29T13:54:44.979Z,14.25
2019-05-29T13:57:18.819Z,14.21
2019-05-29T13:59:53.011Z,14.28
2019-05-29T14:02:26.970Z,14.33
2019-05-29T14:05:02.636Z,14.36
2019-05-29T14:07:36.884Z,14.37
2019-05-29T14:10:12.568Z,14.46
2019-05-29T14:12:46.590Z,14.55
2019-05-29T14:15:20.801Z,14.54
2019-05-29T14:17:54.939Z,14.50
2019-05-29T14:20:28.351Z,14.52
2019-05-29T14:23:03.355Z,14.48
2019-05-29T14:25:37.585Z,14.41
2019-05-29T14:28:10.835Z,14.36
2019-05-29T14:30:48.868Z,14.36
2019-05-29T14:33:21.720Z,14.32
2019-05-29T14:35:55.566Z,14.30
2019-05-29T14:38:29.745Z,14.27
2019-05-29T14:41:03.788Z,14.26
2019-05-29T14:43:37.918Z,14.27
2019-05-29T14:46:12.209Z,14.23
2019-05-29T14:48:47.649Z,14.22
2019-05-29T14:51:21.822Z,14.18
2019-05-29T14:53:56.059Z,14.19
2019-05-29T14:56:30.158Z,14.16
2019-05-29T14:59:05.393Z,14.17
2019-05-29T15:01:38.097Z,14.15
2019-05-29T15:04:14.163Z,14.08
2019-05-29T15:06:47.786Z,14.00
2019-05-29T15:09:21.754Z,13.96
2019-05-29T15:11:58.760Z,13.92
2019-05-29T15:14:32.785Z,13.85
2019-05-29T15:17:10.964Z,13.80
2019-05-29T15:19:45.350Z,13.79
2019-05-29T15:22:19.196Z,13.73
2019-05-29T15:25:04.395Z,13.69
2019-05-29T15:27:28.824Z,13.62
2019-05-29T15:30:02.866Z,13.63
2019-05-29T15:32:36.383Z,13.64
2019-05-29T15:35:14.370Z,13.63
2019-05-29T15:37:46.446Z,13.62
2019-05-29T15:40:20.613Z,13.62
2019-05-29T15:42:54.693Z,13.55
2019-05-29T15:45:28.107Z,13.48
2019-05-29T15:48:02.380Z,13.47
2019-05-29T15:50:36.730Z,13.46
2019-05-29T15:53:11.011Z,13.46
2019-05-29T15:55:45.173Z,13.44
2019-05-29T15:58:18.469Z,13.39
2019-05-29T16:00:52.362Z,13.39
2019-05-29T16:03:27.681Z,13.31
2019-05-29T16:06:02.226Z,13.23
2019-05-29T16:08:37.028Z,13.21
2019-05-29T16:11:12.597Z,13.17
2019-05-29T16:13:46.906Z,13.11
2019-05-29T16:16:20.749Z,13.08
2019-05-29T16:18:54.654Z,12.99
2019-05-29T16:21:28.418Z,12.92
2019-05-29T16:24:02.184Z,12.84
2019-05-29T16:26:36.036Z,12.80
2019-05-29T16:29:12.303Z,12.72
2019-05-29T16:31:46.497Z,12.63
2019-05-29T16:34:21.496Z,12.58
2019-05-29T16:36:55.888Z,12.54
2019-05-29T16:39:29.909Z,12.48
2019-05-29T16:42:03.122Z,12.43
2019-05-29T16:44:36.908Z,12.41
2019-05-29T16:47:12.168Z,12.37
2019-05-29T16:49:46.296Z,12.30
2019-05-29T16:52:20.786Z,12.23
2019-05-29T16:54:54.667Z,12.17
2019-05-29T16:57:28.607Z,12.14
2019-05-29T17:00:02.543Z,12.11
2019-05-29T17:02:39.127Z,12.08
2019-05-29T17:05:13.736Z,12.07
2019-05-29T17:07:47.695Z,12.06
2019-05-29T17:10:24.674Z,12.07
2019-05-29T17:12:58.522Z,12.06
2019-05-29T17:15:32.561Z,12.04
2019-05-29T17:18:06.785Z,12.00
2019-05-29T17:20:45.640Z,11.96
2019-05-29T17:23:20.811Z,11.91
2019-05-29T17:26:09.600Z,11.88
2019-05-29T17:28:31.686Z,11.87
2019-05-29T17:31:05.507Z,11.87
2019-05-29T17:33:39.341Z,11.86
2019-05-29T17:36:13.131Z,11.84
2019-05-29T17:38:46.991Z,11.82
2019-05-29T17:41:21.166Z,11.78
2019-05-29T17:43:54.266Z,11.75
2019-05-29T17:46:28.250Z,11.68
2019-05-29T17:49:01.406Z,11.63
2019-05-29T17:51:35.486Z,11.60
2019-05-29T17:54:08.664Z,11.54
2019-05-29T17:56:42.479Z,11.51
2019-05-29T17:59:16.290Z,11.47
2019-05-29T18:01:50.218Z,11.44
2019-05-29T18:04:24.930Z,11.42
2019-05-29T18:06:58.982Z,11.36
2019-05-29T18:09:33.096Z,11.33
2019-05-29T18:12:07.760Z,11.25
2019-05-29T18:14:41.365Z,11.18
2019-05-29T18:17:15.712Z,11.13
2019-05-29T18:19:50.033Z,11.08
2019-05-29T18:22:25.743Z,11.06
2019-05-29T18:25:00.129Z,11.02
2019-05-29T18:27:34.249Z,11.00
2019-05-29T18:30:13.170Z,10.95
2019-05-29T18:32:46.980Z,10.93
2019-05-29T18:35:22.901Z,10.86
2019-05-29T18:37:57.484Z,10.80
2019-05-29T18:40:32.553Z,10.73
2019-05-29T18:43:06.862Z,10.63
2019-05-29T18:45:39.968Z,10.54
2019-05-29T18:48:13.963Z,10.47
2019-05-29T18:50:47.904Z,10.37
2019-05-29T18:53:22.742Z,10.28
2019-05-29T18:55:57.061Z,10.21
2019-05-29T18:58:30.655Z,10.13
2019-05-29T19:01:05.184Z,10.04
2019-05-29T19:03:40.501Z,9.93
2019-05-29T19:06:14.616Z,9.90
2019-05-29T19:08:49.082Z,9.84
2019-05-29T19:11:23.815Z,9.79
2019-05-29T19:13:58.034Z,9.73
2019-05-29T19:16:32.257Z,9.65
2019-05-29T19:19:06.831Z,9.58
2019-05-29T19:21:40.738Z,9.49
2019-05-29T19:24:14.974Z,9.44
2019-05-29T19:26:48.883Z,9.40
2019-05-29T19:29:23.033Z,9.35
2019-05-29T19:31:57.126Z,9.31
2019-05-29T19:34:31.513Z,9.24
2019-05-29T19:37:05.687Z,9.18
2019-05-29T19:39:39.565Z,9.11
2019-05-29T19:42:13.507Z,9.05
2019-05-29T19:44:47.498Z,8.98
2019-05-29T19:47:20.539Z,8.94
2019-05-29T19:49:54.439Z,8.90
2019-05-29T19:52:33.285Z,8.86
2019-05-29T19:55:07.976Z,8.83
2019-05-29T19:57:55.126Z,8.75
2019-05-29T20:00:17.867Z,8.71
2019-05-29T20:02:52.327Z,8.65
2019-05-29T20:05:26.783Z,8.61
2019-05-29T20:08:01.374Z,8.54
2019-05-29T20:10:35.996Z,8.51
2019-05-29T20:13:09.980Z,8.48
2019-05-29T20:15:43.447Z,8.48
2019-05-29T20:18:17.399Z,8.45
2019-05-29T20:20:50.738Z,8.41
2019-05-29T20:23:24.582Z,8.37
2019-05-29T20:25:58.844Z,8.29
2019-05-29T20:28:32.631Z,8.25
2019-05-29T20:31:06.585Z,8.20
2019-05-29T20:36:12.952Z,8.11
2019-05-29T20:38:47.022Z,8.06
2019-05-29T20:41:20.179Z,8.03
2019-05-29T20:43:54.180Z,7.99
2019-05-29T20:46:27.596Z,7.96
2019-05-29T20:49:01.845Z,7.95
2019-05-29T20:51:38.266Z,7.93
2019-05-29T20:54:12.276Z,7.92
2019-05-29T20:56:46.346Z,7.91
2019-05-29T20:59:19.426Z,7.91
2019-05-29T21:01:54.066Z,7.87
2019-05-29T21:04:28.068Z,7.80
2019-05-29T21:07:01.351Z,7.79
2019-05-29T21:09:35.409Z,7.75
2019-05-29T21:12:08.630Z,7.69
2019-05-29T21:14:43.427Z,7.66
2019-05-29T21:17:18.334Z,7.60
2019-05-29T21:19:52.493Z,7.55
2019-05-29T21:22:26.347Z,7.52
2019-05-29T21:25:06.243Z,7.50
2019-05-29T21:27:37.110Z,7.50
2019-05-29T21:30:12.179Z,7.45
2019-05-29T21:32:46.524Z,7.44
2019-05-29T21:35:20.626Z,7.42
2019-05-29T21:37:54.738Z,7.40
2019-05-29T21:40:28.698Z,7.38
2019-05-29T21:43:01.955Z,7.34
2019-05-29T21:45:36.781Z,7.33
2019-05-29T21:48:10.826Z,7.29
2019-05-29T21:50:45.431Z,7.26
2019-05-29T21:53:19.555Z,7.20
2019-05-29T21:55:52.778Z,7.15
2019-05-29T21:58:28.406Z,7.14
2019-05-29T22:01:02.826Z,7.11
2019-05-29T22:03:38.317Z,7.08
2019-05-29T22:06:12.632Z,7.07
2019-05-29T22:08:46.458Z,7.06
2019-05-29T22:11:20.403Z,7.01
2019-05-29T22:13:54.407Z,6.98
2019-05-29T22:16:28.524Z,6.97
2019-05-29T22:19:04.135Z,6.92
2019-05-29T22:21:36.376Z,6.91
2019-05-29T22:24:13.135Z,6.87
2019-05-29T22:26:46.996Z,6.83
2019-05-29T22:29:20.897Z,6.83
2019-05-29T22:31:55.293Z,6.81
2019-05-29T22:34:29.365Z,6.77
2019-05-29T22:37:03.226Z,6.71
2019-05-29T22:39:37.314Z,6.70
2019-05-29T22:42:11.275Z,6.66
2019-05-29T22:44:45.766Z,6.65
2019-05-29T22:47:19.619Z,6.63
2019-05-29T22:49:53.986Z,6.58
2019-05-29T22:52:27.984Z,6.57
2019-05-29T22:55:02.381Z,6.54
2019-05-29T22:57:36.371Z,6.50
2019-05-29T23:00:11.910Z,6.45
2019-05-29T23:02:45.785Z,6.43
2019-05-29T23:05:19.622Z,6.40
2019-05-29T23:07:54.139Z,6.38
2019-05-29T23:10:28.223Z,6.33
2019-05-29T23:13:05.463Z,6.30
2019-05-29T23:15:35.960Z,6.25
2019-05-29T23:18:09.791Z,6.21
2019-05-29T23:20:43.708Z,6.19
2019-05-29T23:23:17.761Z,6.17
2019-05-29T23:25:52.533Z,6.15
2019-05-29T23:28:26.478Z,6.16
2019-05-29T23:31:01.021Z,6.16
2019-05-29T23:33:34.905Z,6.13
2019-05-29T23:36:08.856Z,6.13
2019-05-29T23:38:42.005Z,6.13
2019-05-29T23:41:15.917Z,6.13
2019-05-29T23:43:49.068Z,6.12
2019-05-29T23:46:22.998Z,6.07
2019-05-29T23:48:57.523Z,6.04
2019-05-29T23:51:31.434Z,6.02
2019-05-29T23:54:05.482Z,6.01
2019-05-29T23:56:38.554Z,6.01
2019-05-29T23:59:12.410Z,5.99
